KUVA/UVA METAR and TAF weather

Enter ICAO airport designator
Station Type Date Time Source
KUVA METAR 2021/05/14 04:55 UTC NOAA

KUVA 140455Z AUTO 09008KT 10SM CLR 18/15 A3024 RMK AO2 T01820152


Station Type Date Time Source
KUVA Decoded METAR 2021/05/14 04:55 UTC NOAA

Uvalde, Garner Field Airport, TX, United States (KUVA) 29-12-40N 099-44-36W
May 14, 2021 - 12:55 AM EDT / 2021.05.14 0455 UTC
Wind: from the E (090 degrees) at 9 MPH (8 KT):0
Visibility: 10 mile(s):0
Sky conditions: clear
Temperature: 64.8 F (18.2 C)
Dew Point: 59.4 F (15.2 C)
Relative Humidity: 82%
Pressure (altimeter): 30.24 in. Hg (1024 hPa)
ob: KUVA 140455Z AUTO 09008KT 10SM CLR 18/15 A3024 RMK AO2 T01820152
cycle: 5

Station Type Date Time Source
KUVA TAF UTC NOAA

Error!

Example: see airport list